sensor_id;sensor_type;location;lat;lon;timestamp;pressure;altitude;pressure_sealevel;temperature;humidity
61018;BME280;48171;51.550;5.434;2023-03-03T00:02:14;102429.38;;;1.27;100.00
61018;BME280;48171;51.550;5.434;2023-03-03T00:04:40;102424.81;;;1.23;100.00
61018;BME280;48171;51.550;5.434;2023-03-03T00:07:05;102431.78;;;1.38;100.00
61018;BME280;48171;51.550;5.434;2023-03-03T00:09:30;102433.41;;;1.36;100.00
61018;BME280;48171;51.550;5.434;2023-03-03T00:11:57;102437.88;;;1.39;100.00
61018;BME280;48171;51.550;5.434;2023-03-03T00:14:29;102434.63;;;1.43;100.00
61018;BME280;48171;51.550;5.434;2023-03-03T00:16:57;102428.63;;;1.44;100.00
61018;BME280;48171;51.550;5.434;2023-03-03T00:19:24;102432.78;;;1.40;100.00
61018;BME280;48171;51.550;5.434;2023-03-03T00:21:51;102441.81;;;1.47;100.00
61018;BME280;48171;51.550;5.434;2023-03-03T00:24:23;102447.84;;;1.46;100.00
61018;BME280;48171;51.550;5.434;2023-03-03T00:27:00;102437.34;;;1.45;100.00
61018;BME280;48171;51.550;5.434;2023-03-03T00:29:30;102437.53;;;1.48;100.00
61018;BME280;48171;51.550;5.434;2023-03-03T00:34:37;102439.47;;;1.52;100.00
61018;BME280;48171;51.550;5.434;2023-03-03T00:37:02;102436.78;;;1.50;100.00
61018;BME280;48171;51.550;5.434;2023-03-03T00:39:34;102430.69;;;1.50;100.00
61018;BME280;48171;51.550;5.434;2023-03-03T00:42:00;102447.22;;;1.50;100.00
61018;BME280;48171;51.550;5.434;2023-03-03T00:47:25;102451.53;;;1.50;100.00
61018;BME280;48171;51.550;5.434;2023-03-03T00:50:37;102440.03;;;1.46;100.00
61018;BME280;48171;51.550;5.434;2023-03-03T00:52:49;102448.97;;;1.51;100.00
61018;BME280;48171;51.550;5.434;2023-03-03T00:55:17;102437.69;;;1.51;100.00
61018;BME280;48171;51.550;5.434;2023-03-03T00:57:42;102426.03;;;1.44;100.00
61018;BME280;48171;51.550;5.434;2023-03-03T01:00:13;102441.16;;;1.51;100.00
61018;BME280;48171;51.550;5.434;2023-03-03T01:02:39;102438.66;;;1.53;100.00
61018;BME280;48171;51.550;5.434;2023-03-03T01:05:04;102449.16;;;1.54;100.00
61018;BME280;48171;51.550;5.434;2023-03-03T01:07:30;102452.56;;;1.53;100.00
61018;BME280;48171;51.550;5.434;2023-03-03T01:09:55;102456.00;;;1.52;100.00
61018;BME280;48171;51.550;5.434;2023-03-03T01:12:20;102455.16;;;1.53;100.00
61018;BME280;48171;51.550;5.434;2023-03-03T01:14:45;102454.38;;;1.54;100.00
61018;BME280;48171;51.550;5.434;2023-03-03T01:17:13;102460.38;;;1.53;100.00
61018;BME280;48171;51.550;5.434;2023-03-03T01:19:38;102456.00;;;1.52;100.00
61018;BME280;48171;51.550;5.434;2023-03-03T01:22:03;102459.75;;;1.57;100.00
61018;BME280;48171;51.550;5.434;2023-03-03T01:24:29;102466.84;;;1.60;100.00
61018;BME280;48171;51.550;5.434;2023-03-03T01:26:54;102460.81;;;1.61;100.00
61018;BME280;48171;51.550;5.434;2023-03-03T01:29:19;102460.47;;;1.55;100.00
61018;BME280;48171;51.550;5.434;2023-03-03T01:31:44;102453.41;;;1.52;100.00
61018;BME280;48171;51.550;5.434;2023-03-03T01:34:10;102453.31;;;1.51;100.00
61018;BME280;48171;51.550;5.434;2023-03-03T01:36:35;102460.31;;;1.52;100.00
61018;BME280;48171;51.550;5.434;2023-03-03T01:39:02;102474.22;;;1.52;100.00
61018;BME280;48171;51.550;5.434;2023-03-03T01:41:28;102471.53;;;1.51;100.00
61018;BME280;48171;51.550;5.434;2023-03-03T01:43:54;102477.63;;;1.51;100.00
61018;BME280;48171;51.550;5.434;2023-03-03T01:48:49;102471.44;;;1.49;100.00
61018;BME280;48171;51.550;5.434;2023-03-03T01:51:25;102470.56;;;1.49;100.00
61018;BME280;48171;51.550;5.434;2023-03-03T01:53:55;102470.31;;;1.44;100.00
61018;BME280;48171;51.550;5.434;2023-03-03T01:56:21;102469.66;;;1.48;100.00
61018;BME280;48171;51.550;5.434;2023-03-03T01:59:28;102469.66;;;1.48;100.00
61018;BME280;48171;51.550;5.434;2023-03-03T02:01:53;102467.69;;;1.44;100.00
61018;BME280;48171;51.550;5.434;2023-03-03T02:04:18;102470.31;;;1.44;100.00
61018;BME280;48171;51.550;5.434;2023-03-03T02:06:50;102470.41;;;1.46;100.00
61018;BME280;48171;51.550;5.434;2023-03-03T02:09:26;102462.25;;;1.39;100.00
61018;BME280;48171;51.550;5.434;2023-03-03T02:11:58;102467.44;;;1.39;100.00
61018;BME280;48171;51.550;5.434;2023-03-03T02:14:25;102469.97;;;1.38;100.00
61018;BME280;48171;51.550;5.434;2023-03-03T02:16:51;102468.72;;;1.31;100.00
61018;BME280;48171;51.550;5.434;2023-03-03T02:19:26;102469.78;;;1.35;100.00
61018;BME280;48171;51.550;5.434;2023-03-03T02:21:58;102481.81;;;1.33;100.00
61018;BME280;48171;51.550;5.434;2023-03-03T02:24:38;102471.22;;;1.30;100.00
61018;BME280;48171;51.550;5.434;2023-03-03T02:27:07;102465.59;;;1.22;100.00
61018;BME280;48171;51.550;5.434;2023-03-03T02:29:32;102468.00;;;1.19;100.00
61018;BME280;48171;51.550;5.434;2023-03-03T02:31:58;102465.97;;;1.13;100.00
61018;BME280;48171;51.550;5.434;2023-03-03T02:34:23;102474.13;;;1.19;100.00
61018;BME280;48171;51.550;5.434;2023-03-03T02:36:49;102471.41;;;1.18;100.00
61018;BME280;48171;51.550;5.434;2023-03-03T02:39:18;102465.97;;;1.13;100.00
61018;BME280;48171;51.550;5.434;2023-03-03T02:42:20;102472.69;;;1.10;100.00
61018;BME280;48171;51.550;5.434;2023-03-03T02:44:49;102468.00;;;1.04;100.00
61018;BME280;48171;51.550;5.434;2023-03-03T02:47:14;102463.69;;;1.05;100.00
61018;BME280;48171;51.550;5.434;2023-03-03T02:49:39;102472.69;;;1.10;100.00
61018;BME280;48171;51.550;5.434;2023-03-03T02:52:08;102464.44;;;1.02;100.00
61018;BME280;48171;51.550;5.434;2023-03-03T02:54:34;102468.75;;;1.02;100.00
61018;BME280;48171;51.550;5.434;2023-03-03T02:56:59;102463.34;;;0.98;100.00
61018;BME280;48171;51.550;5.434;2023-03-03T02:59:25;102462.47;;;0.98;100.00
61018;BME280;48171;51.550;5.434;2023-03-03T03:01:52;102469.72;;;1.04;100.00
61018;BME280;48171;51.550;5.434;2023-03-03T03:04:22;102467.03;;;1.02;100.00
61018;BME280;48171;51.550;5.434;2023-03-03T03:06:48;102468.56;;;0.98;100.00
61018;BME280;48171;51.550;5.434;2023-03-03T03:09:15;102476.44;;;1.00;100.00
61018;BME280;48171;51.550;5.434;2023-03-03T03:11:41;102469.53;;;1.00;100.00
61018;BME280;48171;51.550;5.434;2023-03-03T03:14:07;102471.88;;;0.96;100.00
61018;BME280;48171;51.550;5.434;2023-03-03T03:16:33;102476.56;;;1.02;100.00
61018;BME280;48171;51.550;5.434;2023-03-03T03:19:00;102476.66;;;1.03;100.00
61018;BME280;48171;51.550;5.434;2023-03-03T03:21:26;102477.53;;;1.04;100.00
61018;BME280;48171;51.550;5.434;2023-03-03T03:23:51;102480.94;;;1.03;100.00
61018;BME280;48171;51.550;5.434;2023-03-03T03:26:17;102481.13;;;1.06;100.00
61018;BME280;48171;51.550;5.434;2023-03-03T03:28:47;102483.81;;;1.07;100.00
61018;BME280;48171;51.550;5.434;2023-03-03T03:31:13;102486.44;;;1.07;100.00
61018;BME280;48171;51.550;5.434;2023-03-03T03:33:38;102478.63;;;1.07;100.00
61018;BME280;48171;51.550;5.434;2023-03-03T03:36:04;102478.44;;;1.04;100.00
61018;BME280;48171;51.550;5.434;2023-03-03T03:38:31;102479.41;;;1.06;100.00
61018;BME280;48171;51.550;5.434;2023-03-03T03:40:57;102487.13;;;1.05;100.00
61018;BME280;48171;51.550;5.434;2023-03-03T03:43:22;102490.66;;;1.05;100.00
61018;BME280;48171;51.550;5.434;2023-03-03T03:45:47;102492.97;;;1.00;100.00
61018;BME280;48171;51.550;5.434;2023-03-03T03:48:13;102489.09;;;0.94;100.00
61018;BME280;48171;51.550;5.434;2023-03-03T03:50:39;102492.69;;;0.96;100.00
61018;BME280;48171;51.550;5.434;2023-03-03T03:53:06;102491.00;;;0.96;100.00
61018;BME280;48171;51.550;5.434;2023-03-03T03:55:31;102500.25;;;0.91;100.00
61018;BME280;48171;51.550;5.434;2023-03-03T03:57:57;102506.50;;;0.95;100.00
61018;BME280;48171;51.550;5.434;2023-03-03T04:00:23;102493.84;;;0.86;100.00
61018;BME280;48171;51.550;5.434;2023-03-03T04:02:49;102490.88;;;0.80;100.00
61018;BME280;48171;51.550;5.434;2023-03-03T04:05:14;102498.97;;;0.85;100.00
61018;BME280;48171;51.550;5.434;2023-03-03T04:07:39;102482.00;;;0.76;100.00
61018;BME280;48171;51.550;5.434;2023-03-03T04:10:05;102507.31;;;0.79;100.00
61018;BME280;48171;51.550;5.434;2023-03-03T04:12:30;102501.41;;;0.82;100.00
61018;BME280;48171;51.550;5.434;2023-03-03T04:15:09;102503.81;;;0.78;100.00
61018;BME280;48171;51.550;5.434;2023-03-03T04:17:35;102497.72;;;0.78;100.00
61018;BME280;48171;51.550;5.434;2023-03-03T04:20:00;102497.72;;;0.78;100.00
61018;BME280;48171;51.550;5.434;2023-03-03T04:22:26;102500.56;;;0.83;100.00
61018;BME280;48171;51.550;5.434;2023-03-03T04:24:52;102499.78;;;0.84;100.00
61018;BME280;48171;51.550;5.434;2023-03-03T04:27:17;102498.91;;;0.83;100.00
61018;BME280;48171;51.550;5.434;2023-03-03T04:29:43;102505.88;;;0.84;100.00
61018;BME280;48171;51.550;5.434;2023-03-03T04:32:08;102495.47;;;0.84;100.00
61018;BME280;48171;51.550;5.434;2023-03-03T04:34:33;102502.47;;;0.85;100.00
61018;BME280;48171;51.550;5.434;2023-03-03T04:36:59;102509.38;;;0.85;100.00
61018;BME280;48171;51.550;5.434;2023-03-03T04:39:24;102505.97;;;0.86;100.00
61018;BME280;48171;51.550;5.434;2023-03-03T04:41:50;102500.69;;;0.84;100.00
61018;BME280;48171;51.550;5.434;2023-03-03T04:44:15;102510.34;;;0.87;100.00
61018;BME280;48171;51.550;5.434;2023-03-03T04:46:41;102506.59;;;0.82;100.00
61018;BME280;48171;51.550;5.434;2023-03-03T04:49:06;102507.59;;;0.84;100.00
61018;BME280;48171;51.550;5.434;2023-03-03T04:51:33;102512.06;;;0.86;100.00
61018;BME280;48171;51.550;5.434;2023-03-03T04:53:58;102509.47;;;0.86;100.00
61018;BME280;48171;51.550;5.434;2023-03-03T04:56:23;102500.50;;;0.81;100.00
61018;BME280;48171;51.550;5.434;2023-03-03T04:58:49;102510.44;;;0.88;100.00
61018;BME280;48171;51.550;5.434;2023-03-03T05:01:14;102502.38;;;0.84;100.00
61018;BME280;48171;51.550;5.434;2023-03-03T05:03:39;102509.66;;;0.89;100.00
61018;BME280;48171;51.550;5.434;2023-03-03T05:06:05;102514.16;;;0.92;100.00
61018;BME280;48171;51.550;5.434;2023-03-03T05:08:31;102503.53;;;0.89;100.00
61018;BME280;48171;51.550;5.434;2023-03-03T05:10:56;102500.16;;;0.90;100.00
61018;BME280;48171;51.550;5.434;2023-03-03T05:13:24;102514.31;;;0.95;100.00
61018;BME280;48171;51.550;5.434;2023-03-03T05:15:52;102508.31;;;0.96;100.00
61018;BME280;48171;51.550;5.434;2023-03-03T05:18:20;102514.41;;;0.96;100.00
61018;BME280;48171;51.550;5.434;2023-03-03T05:20:45;102516.22;;;0.97;100.00
61018;BME280;48171;51.550;5.434;2023-03-03T05:23:10;102516.31;;;0.99;100.00
61018;BME280;48171;51.550;5.434;2023-03-03T05:25:36;102518.81;;;0.97;100.00
61018;BME280;48171;51.550;5.434;2023-03-03T05:28:02;102520.59;;;0.98;100.00
61018;BME280;48171;51.550;5.434;2023-03-03T05:30:28;102521.53;;;0.99;100.00
61018;BME280;48171;51.550;5.434;2023-03-03T05:32:54;102510.91;;;0.96;100.00
61018;BME280;48171;51.550;5.434;2023-03-03T05:35:19;102519.09;;;1.02;100.00
61018;BME280;48171;51.550;5.434;2023-03-03T05:37:44;102522.69;;;1.04;100.00
61018;BME280;48171;51.550;5.434;2023-03-03T05:40:12;102529.69;;;1.05;100.00
61018;BME280;48171;51.550;5.434;2023-03-03T05:42:38;102525.47;;;1.07;100.00
61018;BME280;48171;51.550;5.434;2023-03-03T05:45:04;102524.66;;;1.08;100.00
61018;BME280;48171;51.550;5.434;2023-03-03T05:47:29;102527.34;;;1.10;100.00
61018;BME280;48171;51.550;5.434;2023-03-03T05:49:54;102511.47;;;1.05;100.00
61018;BME280;48171;51.550;5.434;2023-03-03T05:52:20;102530.03;;;1.11;100.00
61018;BME280;48171;51.550;5.434;2023-03-03T05:54:45;102518.72;;;1.11;100.00
61018;BME280;48171;51.550;5.434;2023-03-03T05:57:11;102520.44;;;1.10;100.00
61018;BME280;48171;51.550;5.434;2023-03-03T05:59:36;102530.31;;;1.16;100.00
61018;BME280;48171;51.550;5.434;2023-03-03T06:02:01;102532.38;;;1.22;100.00
61018;BME280;48171;51.550;5.434;2023-03-03T06:04:27;102525.09;;;1.16;100.00
61018;BME280;48171;51.550;5.434;2023-03-03T06:06:52;102527.25;;;1.23;100.00
61018;BME280;48171;51.550;5.434;2023-03-03T06:09:17;102531.47;;;1.21;100.00
61018;BME280;48171;51.550;5.434;2023-03-03T06:11:43;102530.56;;;1.20;100.00
61018;BME280;48171;51.550;5.434;2023-03-03T06:14:08;102534.06;;;1.21;100.00
61018;BME280;48171;51.550;5.434;2023-03-03T06:16:34;102530.56;;;1.20;100.00
61018;BME280;48171;51.550;5.434;2023-03-03T06:18:59;102542.84;;;1.23;100.00
61018;BME280;48171;51.550;5.434;2023-03-03T06:21:25;102548.16;;;1.25;100.00
61018;BME280;48171;51.550;5.434;2023-03-03T06:23:50;102543.94;;;1.27;100.00
61018;BME280;48171;51.550;5.434;2023-03-03T06:26:15;102554.56;;;1.30;100.00
61018;BME280;48171;51.550;5.434;2023-03-03T06:28:41;102546.66;;;1.28;100.00
61018;BME280;48171;51.550;5.434;2023-03-03T06:31:06;102548.63;;;1.32;100.00
61018;BME280;48171;51.550;5.434;2023-03-03T06:33:31;102557.41;;;1.34;100.00
61018;BME280;48171;51.550;5.434;2023-03-03T06:35:56;102552.84;;;1.30;100.00
61018;BME280;48171;51.550;5.434;2023-03-03T06:38:22;102564.44;;;1.35;100.00
61018;BME280;48171;51.550;5.434;2023-03-03T06:40:48;102567.94;;;1.36;100.00
61018;BME280;48171;51.550;5.434;2023-03-03T06:43:13;102568.03;;;1.37;100.00
61018;BME280;48171;51.550;5.434;2023-03-03T06:45:39;102574.03;;;1.36;100.00
61018;BME280;48171;51.550;5.434;2023-03-03T06:48:05;102576.63;;;1.36;100.00
61018;BME280;48171;51.550;5.434;2023-03-03T06:50:30;102578.50;;;1.39;100.00
61018;BME280;48171;51.550;5.434;2023-03-03T06:53:13;102582.09;;;1.41;100.00
61018;BME280;48171;51.550;5.434;2023-03-03T06:55:39;102570.63;;;1.37;100.00
61018;BME280;48171;51.550;5.434;2023-03-03T06:58:12;102594.50;;;1.45;100.00
61018;BME280;48171;51.550;5.434;2023-03-03T07:00:40;102592.19;;;1.50;100.00
61018;BME280;48171;51.550;5.434;2023-03-03T07:05:37;102599.25;;;1.52;100.00
61018;BME280;48171;51.550;5.434;2023-03-03T07:08:05;102598.53;;;1.55;100.00
61018;BME280;48171;51.550;5.434;2023-03-03T07:10:31;102602.13;;;1.57;100.00
61018;BME280;48171;51.550;5.434;2023-03-03T07:13:14;102596.91;;;1.57;100.00
61018;BME280;48171;51.550;5.434;2023-03-03T07:15:40;102598.72;;;1.58;100.00
61018;BME280;48171;51.550;5.434;2023-03-03T07:18:21;102595.38;;;1.60;100.00
61018;BME280;48171;51.550;5.434;2023-03-03T07:20:47;102587.56;;;1.60;100.00
61018;BME280;48171;51.550;5.434;2023-03-03T07:23:37;102596.28;;;1.61;100.00
61018;BME280;48171;51.550;5.434;2023-03-03T07:26:15;102599.97;;;1.65;100.00
61018;BME280;48171;51.550;5.434;2023-03-03T07:28:43;102598.16;;;1.64;100.00
61018;BME280;48171;51.550;5.434;2023-03-03T07:33:52;102606.16;;;1.67;100.00
61018;BME280;48171;51.550;5.434;2023-03-03T07:36:25;102615.06;;;1.70;100.00
61018;BME280;48171;51.550;5.434;2023-03-03T07:38:53;102613.19;;;1.68;100.00
61018;BME280;48171;51.550;5.434;2023-03-03T07:41:20;102619.53;;;1.73;100.00
61018;BME280;48171;51.550;5.434;2023-03-03T07:43:50;102615.84;;;1.69;100.00
61018;BME280;48171;51.550;5.434;2023-03-03T07:48:50;102620.88;;;1.81;100.00
61018;BME280;48171;51.550;5.434;2023-03-03T07:51:38;102619.44;;;1.86;100.00
61018;BME280;48171;51.550;5.434;2023-03-03T07:59:37;102625.66;;;1.88;100.00
61018;BME280;48171;51.550;5.434;2023-03-03T08:04:48;102627.28;;;1.86;100.00
61018;BME280;48171;51.550;5.434;2023-03-03T08:07:18;102649.09;;;1.88;100.00
61018;BME280;48171;51.550;5.434;2023-03-03T08:09:47;102640.56;;;1.91;99.08
61018;BME280;48171;51.550;5.434;2023-03-03T08:12:33;102641.63;;;1.94;99.02
61018;BME280;48171;51.550;5.434;2023-03-03T08:15:16;102632.75;;;1.91;98.99
61018;BME280;48171;51.550;5.434;2023-03-03T08:17:42;102647.84;;;1.96;99.00
61018;BME280;48171;51.550;5.434;2023-03-03T08:22:57;102645.38;;;1.99;98.56
61018;BME280;48171;51.550;5.434;2023-03-03T08:25:22;102647.19;;;2.00;98.83
61018;BME280;48171;51.550;5.434;2023-03-03T08:27:49;102649.31;;;2.08;99.22
61018;BME280;48171;51.550;5.434;2023-03-03T08:30:14;102648.53;;;2.09;99.32
61018;BME280;48171;51.550;5.434;2023-03-03T08:32:40;102652.75;;;2.07;100.00
61018;BME280;48171;51.550;5.434;2023-03-03T08:35:05;102664.81;;;2.05;100.00
61018;BME280;48171;51.550;5.434;2023-03-03T08:37:30;102660.59;;;2.07;100.00
61018;BME280;48171;51.550;5.434;2023-03-03T08:39:56;102658.88;;;2.07;100.00
61018;BME280;48171;51.550;5.434;2023-03-03T08:42:21;102662.56;;;2.11;100.00
61018;BME280;48171;51.550;5.434;2023-03-03T08:44:46;102665.50;;;2.17;100.00
61018;BME280;48171;51.550;5.434;2023-03-03T08:47:11;102669.00;;;2.17;100.00
61018;BME280;48171;51.550;5.434;2023-03-03T08:49:37;102669.34;;;2.24;100.00
61018;BME280;48171;51.550;5.434;2023-03-03T08:52:02;102677.28;;;2.25;100.00
61018;BME280;48171;51.550;5.434;2023-03-03T08:54:28;102677.38;;;2.27;99.64
61018;BME280;48171;51.550;5.434;2023-03-03T08:56:53;102680.84;;;2.27;99.84
61018;BME280;48171;51.550;5.434;2023-03-03T08:59:18;102681.59;;;2.25;99.09
61018;BME280;48171;51.550;5.434;2023-03-03T09:01:44;102685.25;;;2.28;99.17
61018;BME280;48171;51.550;5.434;2023-03-03T09:04:10;102684.66;;;2.32;99.19
61018;BME280;48171;51.550;5.434;2023-03-03T09:06:35;102686.66;;;2.38;98.72
61018;BME280;48171;51.550;5.434;2023-03-03T09:09:00;102691.25;;;2.42;98.76
61018;BME280;48171;51.550;5.434;2023-03-03T09:11:27;102694.19;;;2.48;97.85
61018;BME280;48171;51.550;5.434;2023-03-03T09:14:09;102688.34;;;2.52;97.01
61018;BME280;48171;51.550;5.434;2023-03-03T09:16:38;102681.69;;;2.57;96.93
61018;BME280;48171;51.550;5.434;2023-03-03T09:19:34;102686.34;;;2.63;96.82
61018;BME280;48171;51.550;5.434;2023-03-03T09:22:17;102694.25;;;2.65;96.98
61018;BME280;48171;51.550;5.434;2023-03-03T09:24:45;102694.59;;;2.71;96.35
61018;BME280;48171;51.550;5.434;2023-03-03T09:27:37;102692.97;;;2.73;96.29
61018;BME280;48171;51.550;5.434;2023-03-03T09:30:26;102694.00;;;2.76;96.09
61018;BME280;48171;51.550;5.434;2023-03-03T09:32:56;102695.91;;;2.79;95.22
61018;BME280;48171;51.550;5.434;2023-03-03T09:35:37;102699.75;;;2.86;95.17
61018;BME280;48171;51.550;5.434;2023-03-03T09:49:11;102696.69;;;3.09;93.47
61018;BME280;48171;51.550;5.434;2023-03-03T09:51:54;102704.84;;;3.15;93.49
61018;BME280;48171;51.550;5.434;2023-03-03T09:57:31;102707.25;;;3.29;92.99
61018;BME280;48171;51.550;5.434;2023-03-03T10:00:26;102704.09;;;3.34;92.50
61018;BME280;48171;51.550;5.434;2023-03-03T10:05:53;102705.25;;;3.39;91.87
61018;BME280;48171;51.550;5.434;2023-03-03T10:08:36;102706.44;;;3.46;92.40
61018;BME280;48171;51.550;5.434;2023-03-03T10:11:17;102708.31;;;3.49;91.84
61018;BME280;48171;51.550;5.434;2023-03-03T10:19:38;102708.06;;;3.60;91.51
61018;BME280;48171;51.550;5.434;2023-03-03T10:30:08;102706.28;;;3.77;91.42
61018;BME280;48171;51.550;5.434;2023-03-03T10:36:19;102706.03;;;3.89;91.10
61018;BME280;48171;51.550;5.434;2023-03-03T10:38:55;102707.84;;;3.90;90.83
61018;BME280;48171;51.550;5.434;2023-03-03T10:41:42;102706.28;;;3.94;91.31
61018;BME280;48171;51.550;5.434;2023-03-03T10:46:55;102707.84;;;4.08;90.43
61018;BME280;48171;51.550;5.434;2023-03-03T10:49:48;102705.59;;;4.16;89.84
61018;BME280;48171;51.550;5.434;2023-03-03T11:05:50;102704.13;;;4.39;88.44
61018;BME280;48171;51.550;5.434;2023-03-03T11:11:19;102696.09;;;4.54;88.63
61018;BME280;48171;51.550;5.434;2023-03-03T11:16:29;102698.63;;;4.52;88.58
61018;BME280;48171;51.550;5.434;2023-03-03T11:21:59;102693.84;;;4.61;87.08
61018;BME280;48171;51.550;5.434;2023-03-03T11:30:17;102690.06;;;4.74;87.45
61018;BME280;48171;51.550;5.434;2023-03-03T11:33:02;102681.59;;;4.80;87.00
61018;BME280;48171;51.550;5.434;2023-03-03T11:35:44;102691.91;;;4.95;87.52
61018;BME280;48171;51.550;5.434;2023-03-03T11:41:18;102689.63;;;5.03;87.86
61018;BME280;48171;51.550;5.434;2023-03-03T11:43:54;102684.34;;;5.01;87.19
61018;BME280;48171;51.550;5.434;2023-03-03T11:46:25;102686.81;;;4.98;87.17
61018;BME280;48171;51.550;5.434;2023-03-03T11:49:02;102682.44;;;4.79;86.05
61018;BME280;48171;51.550;5.434;2023-03-03T11:54:53;102660.41;;;4.56;86.23
61018;BME280;48171;51.550;5.434;2023-03-03T11:57:50;102685.69;;;4.73;86.36
61018;BME280;48171;51.550;5.434;2023-03-03T12:00:40;102683.47;;;4.82;85.95
61018;BME280;48171;51.550;5.434;2023-03-03T12:06:39;102671.25;;;5.01;85.16
61018;BME280;48171;51.550;5.434;2023-03-03T12:11:46;102671.22;;;5.20;84.88
61018;BME280;48171;51.550;5.434;2023-03-03T12:17:00;102664.94;;;5.36;85.26
61018;BME280;48171;51.550;5.434;2023-03-03T12:19:30;102670.63;;;5.47;86.60
61018;BME280;48171;51.550;5.434;2023-03-03T12:22:19;102667.13;;;5.47;85.54
61018;BME280;48171;51.550;5.434;2023-03-03T12:25:04;102665.38;;;5.47;85.29
61018;BME280;48171;51.550;5.434;2023-03-03T12:27:47;102659.06;;;5.42;86.60
61018;BME280;48171;51.550;5.434;2023-03-03T12:30:25;102656.44;;;5.42;86.27
61018;BME280;48171;51.550;5.434;2023-03-03T12:33:31;102651.72;;;5.33;85.11
61018;BME280;48171;51.550;5.434;2023-03-03T12:36:15;102651.28;;;5.24;85.62
61018;BME280;48171;51.550;5.434;2023-03-03T12:38:59;102657.34;;;5.23;84.98
61018;BME280;48171;51.550;5.434;2023-03-03T12:41:46;102656.59;;;5.26;85.01
61018;BME280;48171;51.550;5.434;2023-03-03T12:44:26;102642.66;;;5.27;84.75
61018;BME280;48171;51.550;5.434;2023-03-03T12:47:07;102629.72;;;5.30;84.69
61018;BME280;48171;51.550;5.434;2023-03-03T12:55:43;102638.00;;;5.60;83.09
61018;BME280;48171;51.550;5.434;2023-03-03T13:04:00;102640.22;;;5.51;84.63
61018;BME280;48171;51.550;5.434;2023-03-03T13:06:48;102639.44;;;5.53;86.71
61018;BME280;48171;51.550;5.434;2023-03-03T13:14:38;102625.19;;;5.47;83.45
61018;BME280;48171;51.550;5.434;2023-03-03T13:17:26;102622.75;;;5.51;85.41
61018;BME280;48171;51.550;5.434;2023-03-03T13:20:32;102623.78;;;5.55;84.91
61018;BME280;48171;51.550;5.434;2023-03-03T13:23:06;102622.19;;;5.58;83.90
61018;BME280;48171;51.550;5.434;2023-03-03T13:30:56;102615.59;;;5.68;82.59
61018;BME280;48171;51.550;5.434;2023-03-03T13:33:28;102609.66;;;5.72;83.09
61018;BME280;48171;51.550;5.434;2023-03-03T13:36:04;102616.44;;;5.88;83.19
61018;BME280;48171;51.550;5.434;2023-03-03T13:38:40;102615.22;;;6.01;81.87
61018;BME280;48171;51.550;5.434;2023-03-03T13:41:30;102608.69;;;6.12;82.04
61018;BME280;48171;51.550;5.434;2023-03-03T13:44:01;102613.47;;;6.23;80.94
61018;BME280;48171;51.550;5.434;2023-03-03T13:54:46;102606.31;;;6.18;80.28
61018;BME280;48171;51.550;5.434;2023-03-03T13:57:23;102607.19;;;6.19;78.72
61018;BME280;48171;51.550;5.434;2023-03-03T14:00:09;102601.38;;;6.26;78.69
61018;BME280;48171;51.550;5.434;2023-03-03T14:02:42;102595.72;;;6.39;78.45
61018;BME280;48171;51.550;5.434;2023-03-03T14:07:58;102585.94;;;6.58;77.56
61018;BME280;48171;51.550;5.434;2023-03-03T14:10:31;102595.66;;;6.60;77.58
61018;BME280;48171;51.550;5.434;2023-03-03T14:13:16;102594.03;;;6.64;76.84
61018;BME280;48171;51.550;5.434;2023-03-03T14:16:14;102597.75;;;6.69;78.14
61018;BME280;48171;51.550;5.434;2023-03-03T14:19:02;102593.66;;;6.77;77.87
61018;BME280;48171;51.550;5.434;2023-03-03T14:21:37;102590.41;;;6.85;76.62
61018;BME280;48171;51.550;5.434;2023-03-03T14:24:20;102585.34;;;6.89;76.39
61018;BME280;48171;51.550;5.434;2023-03-03T14:26:49;102579.22;;;6.90;75.47
61018;BME280;48171;51.550;5.434;2023-03-03T14:29:35;102569.88;;;6.98;75.61
61018;BME280;48171;51.550;5.434;2023-03-03T14:32:20;102584.75;;;6.98;74.80
61018;BME280;48171;51.550;5.434;2023-03-03T14:34:56;102573.31;;;6.96;74.46
61018;BME280;48171;51.550;5.434;2023-03-03T14:37:42;102582.25;;;7.01;75.08
61018;BME280;48171;51.550;5.434;2023-03-03T14:40:18;102574.25;;;6.98;73.86
61018;BME280;48171;51.550;5.434;2023-03-03T14:45:35;102578.78;;;7.02;74.99
61018;BME280;48171;51.550;5.434;2023-03-03T14:48:17;102570.69;;;6.96;73.22
61018;BME280;48171;51.550;5.434;2023-03-03T14:51:14;102571.47;;;6.93;74.59
61018;BME280;48171;51.550;5.434;2023-03-03T14:53:43;102573.22;;;6.93;75.48
61018;BME280;48171;51.550;5.434;2023-03-03T14:56:25;102569.72;;;6.94;75.22
61018;BME280;48171;51.550;5.434;2023-03-03T14:58:53;102564.41;;;6.92;75.69
61018;BME280;48171;51.550;5.434;2023-03-03T15:04:02;102564.31;;;6.89;74.96
61018;BME280;48171;51.550;5.434;2023-03-03T15:06:29;102560.56;;;6.82;74.43
61018;BME280;48171;51.550;5.434;2023-03-03T15:08:55;102562.06;;;6.76;74.67
61018;BME280;48171;51.550;5.434;2023-03-03T15:11:32;102557.69;;;6.76;75.24
61018;BME280;48171;51.550;5.434;2023-03-03T15:14:10;102560.47;;;6.79;75.57
61018;BME280;48171;51.550;5.434;2023-03-03T15:16:36;102552.41;;;6.75;73.50
61018;BME280;48171;51.550;5.434;2023-03-03T15:19:35;102552.28;;;6.72;73.79
61018;BME280;48171;51.550;5.434;2023-03-03T15:22:47;102544.25;;;6.67;75.47
61018;BME280;48171;51.550;5.434;2023-03-03T15:25:26;102532.81;;;6.65;74.34
61018;BME280;48171;51.550;5.434;2023-03-03T15:36:00;102524.78;;;6.86;72.78
61018;BME280;48171;51.550;5.434;2023-03-03T15:44:15;102530.25;;;6.92;74.19
61018;BME280;48171;51.550;5.434;2023-03-03T15:47:13;102535.50;;;6.92;72.12
61018;BME280;48171;51.550;5.434;2023-03-03T15:55:45;102525.50;;;6.82;73.84
61018;BME280;48171;51.550;5.434;2023-03-03T16:01:23;102505.88;;;6.71;73.07
61018;BME280;48171;51.550;5.434;2023-03-03T16:03:55;102496.75;;;6.61;72.03